Time;durP1;ratioP1;P1;durP2;ratioP2;P2;SDS_P1;SDS_P2;PMS_P1;PMS_P2;Temp;Humidity;BMP_temperature;BMP_pressure;BME280_temperature;BME280_humidity;BME280_pressure;Samples;Min_cycle;Max_cycle;Signal;HPM_P1;HPM_P2
2022/01/05 00:01:07;;;;;;;11.30;2.90;;;;;;;;;;5093178;28;20056;-72
2022/01/05 00:03:33;;;;;;;16.80;3.40;;;;;;;;;;5091968;28;20079;-72
2022/01/05 00:05:59;;;;;;;14.48;3.13;;;;;;;;;;5090892;28;20044;-73
2022/01/05 00:08:25;;;;;;;14.05;3.35;;;;;;;;;;5091752;28;20040;-73
2022/01/05 00:10:52;;;;;;;17.65;3.72;;;;;;;;;;5092850;28;20097;-71
2022/01/05 00:13:18;;;;;;;18.17;3.33;;;;;;;;;;5093136;28;20078;-72
2022/01/05 00:15:44;;;;;;;14.55;3.15;;;;;;;;;;5092736;28;20036;-73
2022/01/05 00:18:10;;;;;;;20.08;2.97;;;;;;;;;;5091413;28;20135;-75
2022/01/05 00:20:36;;;;;;;17.20;3.30;;;;;;;;;;5093204;28;20040;-75
2022/01/05 00:23:03;;;;;;;14.00;3.17;;;;;;;;;;5093044;28;20400;-72
2022/01/05 00:25:29;;;;;;;20.33;3.38;;;;;;;;;;5092888;28;20134;-77
2022/01/05 00:27:55;;;;;;;17.98;3.25;;;;;;;;;;5089424;28;20056;-73
2022/01/05 00:30:21;;;;;;;19.52;3.42;;;;;;;;;;5093029;28;20438;-74
2022/01/05 00:32:47;;;;;;;16.02;3.53;;;;;;;;;;5092304;28;20146;-76
2022/01/05 00:35:13;;;;;;;22.77;3.72;;;;;;;;;;5092241;28;20059;-73
2022/01/05 00:37:39;;;;;;;19.42;3.47;;;;;;;;;;5090893;28;20091;-75
2022/01/05 00:40:09;;;;;;;19.48;3.60;;;;;;;;;;5093267;28;20039;-74
2022/01/05 00:42:35;;;;;;;17.40;3.70;;;;;;;;;;5096167;28;20051;-74
2022/01/05 00:45:01;;;;;;;;;;;;;;;;;;5097259;28;20048;-73
2022/01/05 00:47:27;;;;;;;17.70;4.13;;;;;;;;;;5091064;28;19969;-73
2022/01/05 00:49:53;;;;;;;18.05;3.78;;;;;;;;;;5091440;28;20461;-74
2022/01/05 00:52:20;;;;;;;23.15;4.45;;;;;;;;;;5093569;28;20052;-73
2022/01/05 00:54:46;;;;;;;21.40;4.32;;;;;;;;;;5095376;28;20066;-72
2022/01/05 00:57:12;;;;;;;19.77;3.90;;;;;;;;;;5096130;28;20078;-75
2022/01/05 00:59:38;;;;;;;20.35;3.72;;;;;;;;;;5096871;28;20141;-76
2022/01/05 01:02:04;;;;;;;16.95;4.00;;;;;;;;;;5096143;28;20190;-75
2022/01/05 01:04:30;;;;;;;22.02;3.40;;;;;;;;;;5096812;28;20093;-72
2022/01/05 01:06:56;;;;;;;20.15;3.92;;;;;;;;;;5079791;28;20123;-72
2022/01/05 01:09:22;;;;;;;26.25;5.05;;;;;;;;;;5076397;28;20052;-72
2022/01/05 01:11:48;;;;;;;21.88;4.35;;;;;;;;;;5075740;28;20428;-76
2022/01/05 01:14:14;;;;;;;26.70;4.65;;;;;;;;;;5076398;28;20040;-72
2022/01/05 01:16:41;;;;;;;21.70;4.95;;;;;;;;;;5086634;28;20055;-72
2022/01/05 01:19:07;;;;;;;23.27;4.45;;;;;;;;;;5096115;28;20079;-78
2022/01/05 01:21:33;;;;;;;20.45;4.05;;;;;;;;;;5096502;28;20051;-71
2022/01/05 01:23:59;;;;;;;22.55;4.45;;;;;;;;;;5095908;28;20102;-75
2022/01/05 01:26:26;;;;;;;32.13;4.30;;;;;;;;;;5092557;28;20073;-78
2022/01/05 01:28:53;;;;;;;23.50;4.57;;;;;;;;;;5095863;28;20106;-77
2022/01/05 01:31:19;;;;;;;23.48;5.07;;;;;;;;;;5096129;28;20087;-74
2022/01/05 01:33:45;;;;;;;19.42;4.07;;;;;;;;;;5096278;28;20126;-73
2022/01/05 01:36:11;;;;;;;26.58;4.50;;;;;;;;;;5094919;28;20051;-82
2022/01/05 01:38:37;;;;;;;17.75;4.00;;;;;;;;;;5093770;28;20500;-74
2022/01/05 01:41:04;;;;;;;16.90;4.38;;;;;;;;;;5095514;28;20044;-82
2022/01/05 01:43:30;;;;;;;22.42;5.05;;;;;;;;;;5094850;28;20498;-85
2022/01/05 01:45:56;;;;;;;21.25;4.63;;;;;;;;;;5093969;28;20040;-83
2022/01/05 01:48:22;;;;;;;18.10;3.60;;;;;;;;;;5082197;28;20044;-75
2022/01/05 01:50:48;;;;;;;19.55;4.35;;;;;;;;;;5075840;28;20054;-80
2022/01/05 01:53:14;;;;;;;16.75;4.10;;;;;;;;;;5075608;28;20044;-77
2022/01/05 01:55:41;;;;;;;18.73;3.58;;;;;;;;;;5075612;28;20037;-75
2022/01/05 01:58:08;;;;;;;16.17;3.70;;;;;;;;;;5075963;28;20504;-74
2022/01/05 02:00:35;;;;;;;24.83;3.83;;;;;;;;;;5075333;28;20051;-79
2022/01/05 02:03:01;;;;;;;25.27;3.73;;;;;;;;;;5073954;28;20059;-84
2022/01/05 02:05:28;;;;;;;16.98;3.70;;;;;;;;;;5072972;28;20044;-77
2022/01/05 02:07:54;;;;;;;21.10;5.55;;;;;;;;;;5074633;28;20476;-75
2022/01/05 02:10:20;;;;;;;20.58;4.22;;;;;;;;;;5075261;28;20106;-73
2022/01/05 02:12:47;;;;;;;22.27;4.25;;;;;;;;;;5075199;28;20048;-76
2022/01/05 02:15:13;;;;;;;21.27;4.27;;;;;;;;;;5074604;28;20060;-71
2022/01/05 02:20:29;;;;;;;19.40;4.55;;;;;;;;;;5076194;28;20076;-73
2022/01/05 02:22:55;;;;;;;18.58;4.28;;;;;;;;;;5073327;28;20329;-72
2022/01/05 02:25:22;;;;;;;19.60;3.60;;;;;;;;;;5073694;28;20083;-72
2022/01/05 02:27:50;;;;;;;20.90;5.00;;;;;;;;;;5073538;28;20060;-74
2022/01/05 02:30:20;;;;;;;24.60;4.17;;;;;;;;;;5083402;28;20568;-75
2022/01/05 02:32:46;;;;;;;15.20;3.30;;;;;;;;;;5095011;28;20557;-73
2022/01/05 02:35:12;;;;;;;23.45;4.55;;;;;;;;;;5093070;28;20480;-71
2022/01/05 02:37:42;;;;;;;19.67;5.07;;;;;;;;;;5094866;28;20055;-74
2022/01/05 02:40:13;;;;;;;23.03;4.67;;;;;;;;;;5074616;28;20059;-74
2022/01/05 02:42:39;;;;;;;22.33;4.43;;;;;;;;;;5095019;28;20052;-71
2022/01/05 02:45:05;;;;;;;23.65;4.35;;;;;;;;;;5095735;28;20411;-77
2022/01/05 02:47:31;;;;;;;21.17;4.90;;;;;;;;;;5093797;28;20101;-74
2022/01/05 02:49:58;;;;;;;26.55;5.22;;;;;;;;;;5094160;28;20051;-76
2022/01/05 02:52:25;;;;;;;26.27;4.43;;;;;;;;;;5089018;28;20055;-77
2022/01/05 02:54:51;;;;;;;19.05;4.05;;;;;;;;;;5074265;28;20102;-75
2022/01/05 02:57:17;;;;;;;25.50;5.22;;;;;;;;;;5073993;28;20045;-76
2022/01/05 02:59:47;;;;;;;23.20;4.10;;;;;;;;;;5105964;28;20091;-75
2022/01/05 03:02:13;;;;;;;20.00;4.20;;;;;;;;;;5083500;28;20040;-77
2022/01/05 03:04:39;;;;;;;18.27;3.95;;;;;;;;;;5076264;28;20047;-76
2022/01/05 03:07:05;;;;;;;18.58;3.78;;;;;;;;;;5093696;28;20083;-81
2022/01/05 03:09:31;;;;;;;24.17;4.50;;;;;;;;;;5093842;28;20047;-79
2022/01/05 03:11:57;;;;;;;22.00;4.00;;;;;;;;;;5088141;28;20040;-76
2022/01/05 03:14:23;;;;;;;19.95;4.45;;;;;;;;;;5073381;28;20105;-75
2022/01/05 03:16:49;;;;;;;20.02;3.90;;;;;;;;;;5073615;28;20045;-72
2022/01/05 03:19:15;;;;;;;22.33;4.63;;;;;;;;;;5073386;28;20040;-75
2022/01/05 03:21:41;;;;;;;26.25;5.10;;;;;;;;;;5073643;28;20080;-71
2022/01/05 03:24:07;;;;;;;26.05;5.47;;;;;;;;;;5072674;28;20106;-72
2022/01/05 03:26:34;;;;;;;24.30;4.55;;;;;;;;;;5106193;28;20051;-72
2022/01/05 03:29:00;;;;;;;26.15;4.45;;;;;;;;;;5105992;28;20062;-72
2022/01/05 03:31:26;;;;;;;20.30;4.78;;;;;;;;;;5089007;28;20040;-77
2022/01/05 03:33:52;;;;;;;23.23;4.15;;;;;;;;;;5074473;28;20048;-72
2022/01/05 03:36:18;;;;;;;22.23;4.60;;;;;;;;;;5072806;28;20439;-72
2022/01/05 03:38:44;;;;;;;23.02;5.00;;;;;;;;;;5073526;28;20052;-80
2022/01/05 03:41:10;;;;;;;21.00;4.60;;;;;;;;;;5072925;28;20094;-72
2022/01/05 03:43:36;;;;;;;23.70;4.38;;;;;;;;;;5074422;28;20044;-70
2022/01/05 03:46:02;;;;;;;17.80;3.55;;;;;;;;;;5073013;28;20045;-70
2022/01/05 03:48:28;;;;;;;24.38;4.43;;;;;;;;;;5072681;28;20055;-69
2022/01/05 03:50:54;;;;;;;23.15;4.18;;;;;;;;;;5073033;28;20186;-71
2022/01/05 03:53:20;;;;;;;24.27;4.90;;;;;;;;;;5071466;28;20059;-70
2022/01/05 03:55:47;;;;;;;28.42;3.85;;;;;;;;;;5074222;28;20123;-71
2022/01/05 03:58:13;;;;;;;;;;;;;;;;;;5073017;28;20055;-79
2022/01/05 04:00:44;;;;;;;29.10;5.00;;;;;;;;;;5072384;28;19924;-71
2022/01/05 04:03:10;;;;;;;17.48;3.72;;;;;;;;;;5072295;28;20045;-73
2022/01/05 04:05:36;;;;;;;31.42;3.95;;;;;;;;;;5073892;28;20584;-69
2022/01/05 04:08:02;;;;;;;23.73;4.18;;;;;;;;;;5073100;28;20049;-78
2022/01/05 04:10:29;;;;;;;23.58;3.92;;;;;;;;;;5072632;28;20091;-71
2022/01/05 04:12:55;;;;;;;;;;;;;;;;;;5073561;28;20446;-79
2022/01/05 04:15:21;;;;;;;21.85;3.83;;;;;;;;;;5072464;28;19920;-75
2022/01/05 04:17:47;;;;;;;19.63;4.22;;;;;;;;;;5072688;28;20411;-74
2022/01/05 04:20:13;;;;;;;17.95;4.22;;;;;;;;;;5072222;28;20554;-73
2022/01/05 04:22:39;;;;;;;;;;;;;;;;;;5082177;28;20052;-73
2022/01/05 04:25:06;;;;;;;20.20;3.40;;;;;;;;;;5092112;28;19920;-79
2022/01/05 04:27:32;;;;;;;14.70;3.10;;;;;;;;;;5090642;28;20063;-82
2022/01/05 04:29:58;;;;;;;19.98;3.20;;;;;;;;;;5091958;28;20058;-73
2022/01/05 04:32:24;;;;;;;15.20;2.97;;;;;;;;;;5086858;28;20488;-72
2022/01/05 04:34:50;;;;;;;22.48;3.50;;;;;;;;;;5072477;28;20044;-77
2022/01/05 04:37:16;;;;;;;21.92;3.53;;;;;;;;;;5071342;28;20095;-71
2022/01/05 04:39:42;;;;;;;17.80;3.72;;;;;;;;;;5072379;28;20454;-78
2022/01/05 04:42:09;;;;;;;22.85;3.15;;;;;;;;;;5072807;28;20565;-76
2022/01/05 04:44:35;;;;;;;18.23;4.03;;;;;;;;;;5090210;28;20162;-75
2022/01/05 04:47:01;;;;;;;18.90;3.88;;;;;;;;;;5094408;28;20044;-79
2022/01/05 04:49:27;;;;;;;26.40;5.20;;;;;;;;;;5092237;28;20055;-75
2022/01/05 04:51:53;;;;;;;18.63;3.20;;;;;;;;;;5092809;28;20048;-73
2022/01/05 04:54:19;;;;;;;16.27;3.85;;;;;;;;;;5090199;28;20060;-75
2022/01/05 04:56:45;;;;;;;23.55;4.20;;;;;;;;;;5092772;28;20131;-86
2022/01/05 04:59:11;;;;;;;21.17;3.80;;;;;;;;;;5092613;28;20040;-80
2022/01/05 05:01:37;;;;;;;24.58;4.10;;;;;;;;;;5092014;28;20055;-80
2022/01/05 05:04:03;;;;;;;20.10;4.05;;;;;;;;;;5090687;28;20551;-77
2022/01/05 05:06:29;;;;;;;18.15;4.30;;;;;;;;;;5090843;28;20044;-72
2022/01/05 05:08:56;;;;;;;25.13;5.00;;;;;;;;;;5091479;28;20060;-73
2022/01/05 05:11:22;;;;;;;25.05;4.75;;;;;;;;;;5090922;28;20051;-78
2022/01/05 05:13:48;;;;;;;19.92;3.85;;;;;;;;;;5091735;28;20055;-70
2022/01/05 05:16:14;;;;;;;24.95;5.05;;;;;;;;;;5090685;28;20044;-76
2022/01/05 05:18:40;;;;;;;19.65;4.15;;;;;;;;;;5091734;28;20040;-70
2022/01/05 05:21:06;;;;;;;20.50;4.57;;;;;;;;;;5091502;28;20040;-72
2022/01/05 05:23:32;;;;;;;24.50;4.93;;;;;;;;;;5092074;28;20048;-81
2022/01/05 05:25:58;;;;;;;26.73;4.03;;;;;;;;;;5089363;28;20098;-71
2022/01/05 05:28:24;;;;;;;27.63;5.28;;;;;;;;;;5090557;28;20408;-74
2022/01/05 05:30:50;;;;;;;28.30;4.47;;;;;;;;;;5092098;28;20492;-80
2022/01/05 05:33:16;;;;;;;26.52;4.93;;;;;;;;;;5092176;28;20055;-77
2022/01/05 05:35:43;;;;;;;19.70;4.07;;;;;;;;;;5088857;28;20093;-74
2022/01/05 05:38:10;;;;;;;26.98;4.53;;;;;;;;;;5072562;28;20052;-74
2022/01/05 05:40:36;;;;;;;19.83;4.17;;;;;;;;;;5075363;28;20528;-80
2022/01/05 05:43:03;;;;;;;;;;;;;;;;;;5075979;28;20087;-79
2022/01/05 05:45:29;;;;;;;23.95;4.72;;;;;;;;;;5075275;28;19975;-84
2022/01/05 05:47:55;;;;;;;20.60;4.10;;;;;;;;;;5091332;28;20048;-70
2022/01/05 05:50:21;;;;;;;17.58;3.97;;;;;;;;;;5095607;28;20048;-69
2022/01/05 05:52:47;;;;;;;29.90;5.35;;;;;;;;;;5094532;28;20510;-80
2022/01/05 05:55:13;;;;;;;30.50;5.25;;;;;;;;;;5092821;28;20056;-76
2022/01/05 05:57:39;;;;;;;19.38;4.00;;;;;;;;;;5094155;28;20488;-77
2022/01/05 06:00:06;;;;;;;22.38;4.32;;;;;;;;;;5095653;28;20133;-73
2022/01/05 06:02:32;;;;;;;;;;;;;;;;;;5095513;28;20506;-74
2022/01/05 06:04:58;;;;;;;31.93;6.07;;;;;;;;;;5095578;28;20024;-76
2022/01/05 06:07:24;;;;;;;35.53;5.32;;;;;;;;;;5092949;28;20479;-77
2022/01/05 06:09:50;;;;;;;22.77;4.50;;;;;;;;;;5095603;28;20036;-72
2022/01/05 06:12:16;;;;;;;19.40;4.07;;;;;;;;;;5095529;28;20510;-80
2022/01/05 06:14:42;;;;;;;22.90;4.38;;;;;;;;;;5094813;28;20048;-74
2022/01/05 06:17:08;;;;;;;28.55;5.22;;;;;;;;;;5093830;28;20044;-71
2022/01/05 06:19:34;;;;;;;20.17;3.78;;;;;;;;;;5095604;28;20058;-79
2022/01/05 06:22:00;;;;;;;21.42;3.83;;;;;;;;;;5095543;28;20453;-87
2022/01/05 06:24:26;;;;;;;23.38;4.13;;;;;;;;;;5094755;28;20070;-82
2022/01/05 06:26:52;;;;;;;22.98;4.05;;;;;;;;;;5093199;28;20052;-77
2022/01/05 06:29:19;;;;;;;26.10;4.40;;;;;;;;;;5094241;28;20435;-78
2022/01/05 06:31:45;;;;;;;26.60;5.00;;;;;;;;;;5094372;28;20058;-71
2022/01/05 06:34:11;;;;;;;23.35;4.30;;;;;;;;;;5095077;28;20044;-70
2022/01/05 06:36:38;;;;;;;29.15;6.25;;;;;;;;;;5093711;28;20067;-73
2022/01/05 06:39:04;;;;;;;35.58;5.30;;;;;;;;;;5076857;28;20385;-71
2022/01/05 06:41:30;;;;;;;23.40;4.85;;;;;;;;;;5074052;28;20511;-73
2022/01/05 06:43:56;;;;;;;32.53;5.07;;;;;;;;;;5074608;28;20040;-75
2022/01/05 06:46:22;;;;;;;24.13;4.75;;;;;;;;;;5073273;28;20125;-76
2022/01/05 06:48:48;;;;;;;24.27;4.70;;;;;;;;;;5105268;28;20090;-69
2022/01/05 06:51:15;;;;;;;28.60;4.30;;;;;;;;;;5074237;28;20048;-71
2022/01/05 06:53:41;;;;;;;17.58;3.55;;;;;;;;;;5089883;28;20075;-75
2022/01/05 06:56:07;;;;;;;19.35;4.55;;;;;;;;;;5076893;28;20044;-71
2022/01/05 06:58:34;;;;;;;25.27;4.53;;;;;;;;;;5073885;28;20048;-75
2022/01/05 07:01:00;;;;;;;25.10;4.50;;;;;;;;;;5074154;28;20083;-74
2022/01/05 07:03:26;;;;;;;23.80;4.03;;;;;;;;;;5074420;28;20049;-67
2022/01/05 07:05:52;;;;;;;21.02;4.25;;;;;;;;;;5076135;28;20047;-77
2022/01/05 07:08:19;;;;;;;28.38;4.32;;;;;;;;;;5093987;28;20040;-77
2022/01/05 07:10:45;;;;;;;27.53;4.47;;;;;;;;;;5093844;28;20047;-70
2022/01/05 07:13:11;;;;;;;24.17;3.88;;;;;;;;;;5094244;28;20453;-74
2022/01/05 07:15:37;;;;;;;25.25;3.95;;;;;;;;;;5093725;28;20044;-73
2022/01/05 07:18:04;;;;;;;18.48;3.22;;;;;;;;;;5092589;28;20059;-76
2022/01/05 07:20:30;;;;;;;26.92;3.70;;;;;;;;;;5093203;28;20048;-74
2022/01/05 07:22:56;;;;;;;25.65;4.03;;;;;;;;;;5093754;28;20054;-78
2022/01/05 07:25:22;;;;;;;18.67;3.65;;;;;;;;;;5094095;28;20044;-73
2022/01/05 07:27:48;;;;;;;28.27;4.10;;;;;;;;;;5091786;28;20507;-72
2022/01/05 07:30:14;;;;;;;16.38;3.17;;;;;;;;;;5094030;28;20056;-82
2022/01/05 07:32:40;;;;;;;26.67;4.00;;;;;;;;;;5092404;28;20079;-75
2022/01/05 07:35:07;;;;;;;25.33;3.90;;;;;;;;;;5094144;28;20084;-79
2022/01/05 07:37:33;;;;;;;19.73;3.58;;;;;;;;;;5092077;28;20040;-82
2022/01/05 07:39:59;;;;;;;24.55;3.75;;;;;;;;;;5092303;28;20048;-79
2022/01/05 07:42:27;;;;;;;26.83;3.72;;;;;;;;;;5092366;28;20044;-76
2022/01/05 07:44:53;;;;;;;23.45;3.67;;;;;;;;;;5092426;28;20083;-75
2022/01/05 07:47:19;;;;;;;18.65;3.90;;;;;;;;;;5093299;28;20064;-73
2022/01/05 07:49:45;;;;;;;25.52;3.97;;;;;;;;;;5090403;28;20052;-75
2022/01/05 07:52:12;;;;;;;23.23;4.45;;;;;;;;;;5042652;28;20071;-73
2022/01/05 07:54:38;;;;;;;21.45;4.07;;;;;;;;;;5050924;28;20072;-74
2022/01/05 07:57:04;;;;;;;26.33;3.85;;;;;;;;;;5051443;28;20055;-73
2022/01/05 07:59:30;;;;;;;22.27;4.30;;;;;;;;;;5051550;28;20497;-74
2022/01/05 08:01:56;;;;;;;23.70;4.38;;;;;;;;;;5052055;28;20052;-76
2022/01/05 08:04:23;;;;;;;16.05;3.42;;;;;;;;;;5051945;28;20044;-80
2022/01/05 08:06:49;;;;;;;23.60;3.50;;;;;;;;;;5051981;28;20048;-73
2022/01/05 08:09:16;;;;;;;16.35;2.70;;;;;;;;;;5051933;28;20049;-74
2022/01/05 08:11:42;;;;;;;18.75;3.25;;;;;;;;;;5051450;28;20550;-75
2022/01/05 08:14:08;;;;;;;15.20;3.25;;;;;;;;;;5052304;28;20053;-69
2022/01/05 08:16:34;;;;;;;15.52;3.80;;;;;;;;;;5052613;28;20143;-76
2022/01/05 08:19:00;;;;;;;20.33;3.42;;;;;;;;;;5053016;28;20104;-73
2022/01/05 08:21:26;;;;;;;19.85;3.85;;;;;;;;;;5051126;28;20045;-71
2022/01/05 08:23:52;;;;;;;18.90;4.07;;;;;;;;;;5051030;28;20504;-73
2022/01/05 08:26:18;;;;;;;22.67;4.05;;;;;;;;;;5052036;28;20572;-74
2022/01/05 08:28:44;;;;;;;28.85;3.60;;;;;;;;;;5052469;28;20053;-73
2022/01/05 08:31:10;;;;;;;19.85;3.60;;;;;;;;;;5083174;28;20049;-76
2022/01/05 08:33:36;;;;;;;17.70;3.65;;;;;;;;;;5051089;28;20041;-76
2022/01/05 08:36:03;;;;;;;22.73;4.60;;;;;;;;;;5050411;28;20049;-74
2022/01/05 08:38:29;;;;;;;25.55;3.90;;;;;;;;;;5051773;28;20056;-72
2022/01/05 08:40:55;;;;;;;20.85;4.10;;;;;;;;;;5050214;28;20041;-72
2022/01/05 08:43:22;;;;;;;24.88;3.80;;;;;;;;;;5052263;28;20409;-75
2022/01/05 08:45:48;;;;;;;28.20;3.97;;;;;;;;;;5050363;28;20048;-76
2022/01/05 08:48:15;;;;;;;24.27;4.20;;;;;;;;;;5050898;28;20049;-75
2022/01/05 08:50:41;;;;;;;23.45;3.60;;;;;;;;;;5050987;28;20131;-80
2022/01/05 08:53:07;;;;;;;21.65;4.80;;;;;;;;;;5098413;28;20048;-77
2022/01/05 08:55:36;;;;;;;26.90;4.82;;;;;;;;;;5088254;28;20481;-78
2022/01/05 08:58:02;;;;;;;25.80;5.22;;;;;;;;;;5071281;28;20122;-83
2022/01/05 09:00:28;;;;;;;27.27;4.68;;;;;;;;;;5070762;28;20451;-73
2022/01/05 09:02:54;;;;;;;29.58;4.22;;;;;;;;;;5068574;28;20106;-80
2022/01/05 09:05:20;;;;;;;31.75;5.03;;;;;;;;;;5070565;28;20127;-79
2022/01/05 09:07:47;;;;;;;31.00;4.78;;;;;;;;;;5070379;28;20090;-77
2022/01/05 09:10:13;;;;;;;30.48;5.65;;;;;;;;;;5070372;28;20041;-77
2022/01/05 09:12:39;;;;;;;26.85;4.57;;;;;;;;;;5069920;28;20044;-74
2022/01/05 09:15:06;;;;;;;30.65;3.95;;;;;;;;;;5053789;28;20037;-75
2022/01/05 09:17:32;;;;;;;20.42;3.20;;;;;;;;;;5054433;28;20052;-78
2022/01/05 09:19:58;;;;;;;19.40;4.00;;;;;;;;;;5086004;28;20145;-75
2022/01/05 09:22:24;;;;;;;17.02;3.22;;;;;;;;;;5054280;28;20133;-73
2022/01/05 09:24:51;;;;;;;21.50;3.75;;;;;;;;;;5054685;28;20037;-73
2022/01/05 09:27:17;;;;;;;19.23;3.65;;;;;;;;;;5054188;28;20092;-74
2022/01/05 09:29:44;;;;;;;21.63;3.53;;;;;;;;;;5054691;28;20430;-75
2022/01/05 09:32:10;;;;;;;22.75;5.22;;;;;;;;;;5053949;28;20057;-79
2022/01/05 09:34:37;;;;;;;23.90;4.10;;;;;;;;;;5056907;28;20045;-77
2022/01/05 09:37:10;;;;;;;25.40;4.28;;;;;;;;;;5059220;28;20049;-72
2022/01/05 09:42:22;;;;;;;29.30;4.18;;;;;;;;;;5054142;28;20428;-92
2022/01/05 09:44:49;;;;;;;27.45;3.92;;;;;;;;;;5052998;28;20052;-78
2022/01/05 09:47:23;;;;;;;29.48;4.60;;;;;;;;;;5054758;28;20041;-77
2022/01/05 09:49:53;;;;;;;27.00;4.50;;;;;;;;;;5054811;28;20049;-75
2022/01/05 09:52:19;;;;;;;25.33;4.22;;;;;;;;;;5074323;28;20567;-74
2022/01/05 09:54:45;;;;;;;;;;;;;;;;;;5072643;28;20041;-73
2022/01/05 09:57:14;;;;;;;28.55;5.63;;;;;;;;;;5073558;28;20409;-70
2022/01/05 09:59:41;;;;;;;30.58;5.38;;;;;;;;;;5073811;28;20040;-77
2022/01/05 10:02:07;;;;;;;;;;;;;;;;;;5071823;28;20048;-74
2022/01/05 10:04:35;;;;;;;21.67;4.13;;;;;;;;;;5073393;28;20284;-72
2022/01/05 10:07:01;;;;;;;27.15;4.72;;;;;;;;;;5072993;28;20067;-79
2022/01/05 10:09:27;;;;;;;24.75;3.92;;;;;;;;;;5073698;28;20052;-76
2022/01/05 10:11:53;;;;;;;26.92;4.45;;;;;;;;;;5063069;28;20045;-85
2022/01/05 10:14:19;;;;;;;23.13;4.65;;;;;;;;;;5052992;28;20056;-74
2022/01/05 10:17:05;;;;;;;28.33;5.32;;;;;;;;;;5053378;28;20044;-72
2022/01/05 10:19:32;;;;;;;24.13;4.97;;;;;;;;;;5052409;28;20535;-72
2022/01/05 10:21:58;;;;;;;31.58;4.60;;;;;;;;;;5052931;28;20526;-75
2022/01/05 10:24:47;;;;;;;23.33;4.05;;;;;;;;;;5052787;28;20048;-73
2022/01/05 10:27:20;;;;;;;26.27;4.13;;;;;;;;;;5052071;28;20064;-77
2022/01/05 10:30:06;;;;;;;19.48;4.63;;;;;;;;;;5053186;28;20059;-75
2022/01/05 10:32:34;;;;;;;23.92;3.85;;;;;;;;;;5058673;28;20098;-71
2022/01/05 10:35:16;;;;;;;33.85;4.85;;;;;;;;;;5053681;28;20049;-74
2022/01/05 10:37:44;;;;;;;29.75;5.18;;;;;;;;;;5052513;28;20461;-72
2022/01/05 10:40:19;;;;;;;30.55;5.35;;;;;;;;;;5052418;28;20048;-75
2022/01/05 10:42:46;;;;;;;43.38;7.18;;;;;;;;;;5052958;28;20052;-72
2022/01/05 10:45:14;;;;;;;29.85;5.32;;;;;;;;;;5053217;28;20090;-76
2022/01/05 10:47:41;;;;;;;32.22;5.35;;;;;;;;;;5053891;28;20056;-71
2022/01/05 10:50:11;;;;;;;34.55;5.57;;;;;;;;;;5051883;28;20044;-72
2022/01/05 10:52:37;;;;;;;29.17;5.18;;;;;;;;;;5051440;28;20169;-72
2022/01/05 10:55:09;;;;;;;29.02;5.30;;;;;;;;;;5053292;28;20077;-79
2022/01/05 10:57:36;;;;;;;41.10;6.75;;;;;;;;;;5052238;28;20126;-69
2022/01/05 11:00:03;;;;;;;33.83;5.18;;;;;;;;;;5051780;28;20048;-77
2022/01/05 11:02:32;;;;;;;31.95;5.50;;;;;;;;;;5052285;28;20110;-73
2022/01/05 11:05:11;;;;;;;32.08;5.53;;;;;;;;;;5051974;28;20504;-73
2022/01/05 11:07:39;;;;;;;30.95;6.15;;;;;;;;;;5052444;28;20053;-72
2022/01/05 11:10:18;;;;;;;28.98;5.40;;;;;;;;;;5051879;28;20053;-75
2022/01/05 11:12:51;;;;;;;35.22;5.38;;;;;;;;;;5051849;28;20461;-69
2022/01/05 11:15:24;;;;;;;30.08;5.68;;;;;;;;;;5051427;28;20045;-69
2022/01/05 11:18:09;;;;;;;30.60;4.72;;;;;;;;;;5069441;28;20052;-75
2022/01/05 11:20:52;;;;;;;29.95;4.88;;;;;;;;;;5072754;28;20053;-81
2022/01/05 11:23:19;;;;;;;39.05;5.20;;;;;;;;;;5087169;28;20088;-70
2022/01/05 11:25:46;;;;;;;32.38;5.85;;;;;;;;;;5071494;28;20131;-74
2022/01/05 11:28:14;;;;;;;43.20;5.68;;;;;;;;;;5061095;28;20087;-72
2022/01/05 11:30:41;;;;;;;29.83;5.47;;;;;;;;;;5071830;28;20056;-69
2022/01/05 11:33:07;;;;;;;32.10;5.63;;;;;;;;;;5070128;28;20044;-72
2022/01/05 11:35:34;;;;;;;25.95;5.97;;;;;;;;;;5071847;28;20084;-74
2022/01/05 11:38:00;;;;;;;;;;;;;;;;;;5070151;28;20051;-78
2022/01/05 11:40:26;;;;;;;29.52;4.57;;;;;;;;;;5071097;28;19921;-70
2022/01/05 11:42:58;;;;;;;27.73;4.53;;;;;;;;;;5071412;28;20052;-83
2022/01/05 11:45:28;;;;;;;28.55;4.93;;;;;;;;;;5070467;28;20037;-75
2022/01/05 11:48:10;;;;;;;24.85;4.93;;;;;;;;;;5066521;28;20116;-76
2022/01/05 11:50:42;;;;;;;32.80;7.28;;;;;;;;;;5051255;28;20128;-75
2022/01/05 11:53:08;;;;;;;23.75;4.63;;;;;;;;;;5050122;28;20128;-70
2022/01/05 11:55:57;;;;;;;33.45;6.03;;;;;;;;;;5052159;28;20041;-86
2022/01/05 11:58:26;;;;;;;29.83;4.90;;;;;;;;;;5049744;28;20500;-71
2022/01/05 12:01:11;;;;;;;31.80;5.18;;;;;;;;;;5050952;28;20136;-71
2022/01/05 12:03:53;;;;;;;20.58;4.13;;;;;;;;;;5051015;28;20053;-69
2022/01/05 12:06:20;;;;;;;27.95;4.30;;;;;;;;;;5052386;28;20128;-71
2022/01/05 12:08:47;;;;;;;23.95;3.75;;;;;;;;;;5058676;28;20136;-73
2022/01/05 12:11:33;;;;;;;20.08;3.40;;;;;;;;;;5049856;28;20057;-73
2022/01/05 12:13:59;;;;;;;23.65;3.92;;;;;;;;;;5083136;28;20052;-71
2022/01/05 12:16:25;;;;;;;22.70;3.78;;;;;;;;;;5050417;28;20090;-71
2022/01/05 12:19:05;;;;;;;22.00;4.28;;;;;;;;;;5083899;28;20067;-76
2022/01/05 12:21:46;;;;;;;17.50;2.83;;;;;;;;;;5049013;28;20642;-72
2022/01/05 12:24:13;;;;;;;21.42;4.18;;;;;;;;;;5050043;28;20041;-75
2022/01/05 12:26:39;;;;;;;21.08;4.22;;;;;;;;;;5050481;28;20045;-77
2022/01/05 12:29:05;;;;;;;22.33;4.25;;;;;;;;;;5051144;28;20091;-71
2022/01/05 12:31:50;;;;;;;28.60;5.22;;;;;;;;;;5054298;28;20048;-70
2022/01/05 12:34:35;;;;;;;23.70;4.07;;;;;;;;;;5070005;28;20052;-75
2022/01/05 12:37:01;;;;;;;30.10;4.45;;;;;;;;;;5050820;28;20044;-70
2022/01/05 12:39:45;;;;;;;29.75;4.78;;;;;;;;;;5050085;28;20045;-74
2022/01/05 12:42:24;;;;;;;24.40;4.45;;;;;;;;;;5050546;28;20443;-69
2022/01/05 12:44:50;;;;;;;24.15;4.15;;;;;;;;;;5050211;28;20132;-76
2022/01/05 12:47:17;;;;;;;23.80;5.03;;;;;;;;;;5061619;28;20405;-78
2022/01/05 12:49:43;;;;;;;30.25;5.60;;;;;;;;;;5069714;28;20089;-66
2022/01/05 12:52:15;;;;;;;26.20;4.75;;;;;;;;;;5070331;28;20084;-71
2022/01/05 12:54:45;;;;;;;26.75;4.22;;;;;;;;;;5069461;28;20056;-79
2022/01/05 12:57:15;;;;;;;22.33;3.65;;;;;;;;;;5070079;28;20484;-71
2022/01/05 12:59:44;;;;;;;23.15;4.60;;;;;;;;;;5059937;28;20063;-77
2022/01/05 13:02:11;;;;;;;19.50;3.75;;;;;;;;;;5071994;28;20566;-69
2022/01/05 13:04:38;;;;;;;22.95;4.93;;;;;;;;;;5072963;28;20386;-81
2022/01/05 13:07:05;;;;;;;24.92;5.05;;;;;;;;;;5069666;28;20477;-81
2022/01/05 13:09:39;;;;;;;28.60;4.60;;;;;;;;;;5085163;28;20448;-69
2022/01/05 13:12:08;;;;;;;30.05;5.68;;;;;;;;;;5067682;28;20048;-68
2022/01/05 13:14:36;;;;;;;30.90;5.40;;;;;;;;;;5069618;28;20143;-75
2022/01/05 13:17:04;;;;;;;26.42;3.65;;;;;;;;;;5067164;28;20044;-74
2022/01/05 13:19:33;;;;;;;33.25;5.65;;;;;;;;;;5069657;28;20049;-70
2022/01/05 13:22:08;;;;;;;28.63;5.05;;;;;;;;;;5070156;28;20071;-77
2022/01/05 13:24:43;;;;;;;30.55;6.20;;;;;;;;;;5069607;28;20044;-74
2022/01/05 13:27:10;;;;;;;28.13;5.22;;;;;;;;;;5066402;28;20056;-74
2022/01/05 13:29:38;;;;;;;32.10;5.70;;;;;;;;;;5068084;28;20053;-78
2022/01/05 13:32:05;;;;;;;28.90;6.35;;;;;;;;;;5069177;28;20166;-75
2022/01/05 13:34:36;;;;;;;22.10;5.10;;;;;;;;;;5069612;28;20048;-71
2022/01/05 13:37:03;;;;;;;15.80;3.30;;;;;;;;;;5068039;28;20515;-72
2022/01/05 13:39:40;;;;;;;20.95;4.55;;;;;;;;;;5100535;28;20488;-74
2022/01/05 13:42:07;;;;;;;17.17;3.05;;;;;;;;;;5051061;28;20045;-68
2022/01/05 13:44:33;;;;;;;15.13;3.03;;;;;;;;;;5064273;28;20082;-79
2022/01/05 13:47:02;;;;;;;21.90;4.60;;;;;;;;;;5063795;28;20048;-70
2022/01/05 13:49:28;;;;;;;19.92;3.80;;;;;;;;;;5069477;28;20044;-71
2022/01/05 13:52:04;;;;;;;22.60;4.07;;;;;;;;;;5052241;28;20135;-74
2022/01/05 13:54:32;;;;;;;32.78;4.38;;;;;;;;;;5049372;28;20408;-70
2022/01/05 13:56:58;;;;;;;30.85;5.32;;;;;;;;;;5050204;28;20475;-72
2022/01/05 13:59:24;;;;;;;28.05;4.40;;;;;;;;;;5049992;28;20494;-70
2022/01/05 14:01:55;;;;;;;22.90;5.10;;;;;;;;;;5053774;28;20435;-81
2022/01/05 14:04:21;;;;;;;25.20;4.57;;;;;;;;;;5085816;28;20136;-68
2022/01/05 14:06:58;;;;;;;28.30;4.75;;;;;;;;;;5052788;28;20048;-70
2022/01/05 14:09:30;;;;;;;20.88;3.92;;;;;;;;;;5053394;28;20064;-70
2022/01/05 14:12:00;;;;;;;32.63;4.85;;;;;;;;;;5057531;28;20164;-72
2022/01/05 14:14:27;;;;;;;22.02;4.60;;;;;;;;;;5072905;28;20443;-70
2022/01/05 14:16:53;;;;;;;21.70;3.90;;;;;;;;;;5072818;28;20044;-69
2022/01/05 14:19:27;;;;;;;22.23;3.53;;;;;;;;;;5072952;28;20138;-69
2022/01/05 14:22:02;;;;;;;21.98;4.50;;;;;;;;;;5073350;28;20067;-71
2022/01/05 14:24:29;;;;;;;19.88;4.05;;;;;;;;;;5071567;28;20055;-68
2022/01/05 14:26:55;;;;;;;26.38;3.80;;;;;;;;;;5053269;28;20041;-72
2022/01/05 14:29:25;;;;;;;26.48;4.35;;;;;;;;;;5052800;28;20397;-68
2022/01/05 14:31:52;;;;;;;32.42;5.30;;;;;;;;;;5052556;28;20157;-68
2022/01/05 14:34:19;;;;;;;;;;;;;;;;;;5068695;28;20076;-75
2022/01/05 14:36:47;;;;;;;32.03;6.07;;;;;;;;;;5053396;28;19935;-68
2022/01/05 14:39:17;;;;;;;39.67;5.90;;;;;;;;;;5052653;28;20053;-74
2022/01/05 14:41:44;;;;;;;37.97;6.78;;;;;;;;;;5060395;28;20053;-68